createdAt,value
2022-11-24T00:00:08.382Z,8.82
2022-11-24T00:02:35.088Z,8.79
2022-11-24T00:05:01.774Z,8.87
2022-11-24T00:07:28.367Z,8.85
2022-11-24T00:09:55.001Z,8.88
2022-11-24T00:12:21.585Z,8.86
2022-11-24T00:14:48.239Z,8.88
2022-11-24T00:17:14.815Z,8.85
2022-11-24T00:19:42.084Z,8.87
2022-11-24T00:22:08.747Z,8.85
2022-11-24T00:24:35.571Z,8.86
2022-11-24T00:27:02.353Z,8.92
2022-11-24T00:29:28.906Z,8.87
2022-11-24T00:31:57.099Z,8.91
2022-11-24T00:34:23.840Z,8.92
2022-11-24T00:36:50.391Z,8.87
2022-11-24T00:39:17.610Z,8.85
2022-11-24T00:41:44.208Z,8.86
2022-11-24T00:44:10.955Z,8.84
2022-11-24T00:46:37.883Z,8.88
2022-11-24T00:49:05.024Z,8.84
2022-11-24T00:51:31.967Z,8.80
2022-11-24T00:53:59.291Z,8.80
2022-11-24T00:56:26.876Z,8.78
2022-11-24T00:58:53.770Z,8.86
2022-11-24T01:01:25.469Z,8.85
2022-11-24T01:03:52.918Z,8.80
2022-11-24T01:06:21.549Z,8.80
2022-11-24T01:08:48.534Z,8.77
2022-11-24T01:11:20.591Z,8.78
2022-11-24T01:13:50.306Z,8.74
2022-11-24T01:16:21.942Z,8.76
2022-11-24T01:18:49.029Z,8.78
2022-11-24T01:21:16.396Z,8.84
2022-11-24T01:23:43.098Z,8.79
2022-11-24T01:26:12.104Z,8.81
2022-11-24T01:28:44.848Z,8.83
2022-11-24T01:31:13.557Z,8.86
2022-11-24T01:33:40.283Z,8.91
2022-11-24T01:36:07.441Z,8.94
2022-11-24T01:38:34.419Z,9.00
2022-11-24T01:41:06.558Z,8.99
2022-11-24T01:43:33.414Z,9.02
2022-11-24T01:46:06.026Z,9.07
2022-11-24T01:48:40.165Z,9.11
2022-11-24T01:51:14.134Z,9.13
2022-11-24T01:53:46.306Z,9.17
2022-11-24T01:56:13.244Z,9.18
2022-11-24T01:58:40.838Z,9.19
2022-11-24T02:01:07.583Z,9.22
2022-11-24T02:03:35.885Z,9.21
2022-11-24T02:06:08.023Z,9.21
2022-11-24T02:08:47.271Z,9.26
2022-11-24T02:11:13.871Z,9.24
2022-11-24T02:13:41.338Z,9.28
2022-11-24T02:16:10.876Z,9.24
2022-11-24T02:18:42.103Z,9.29
2022-11-24T02:21:10.641Z,9.27
2022-11-24T02:24:04.446Z,9.25
2022-11-24T02:26:45.152Z,9.25
2022-11-24T02:29:12.828Z,9.28
2022-11-24T02:31:42.092Z,9.30
2022-11-24T02:34:08.689Z,9.29
2022-11-24T02:36:35.291Z,9.30
2022-11-24T02:39:02.108Z,9.33
2022-11-24T02:41:29.173Z,9.33
2022-11-24T02:43:57.027Z,9.35
2022-11-24T02:46:23.711Z,9.32
2022-11-24T02:48:50.421Z,9.39
2022-11-24T02:51:17.635Z,9.40
2022-11-24T02:53:44.456Z,9.42
2022-11-24T02:56:11.178Z,9.44
2022-11-24T02:58:37.789Z,9.44
2022-11-24T03:01:04.644Z,9.46
2022-11-24T03:03:31.682Z,9.49
2022-11-24T03:05:58.476Z,9.52
2022-11-24T03:08:25.127Z,9.50
2022-11-24T03:10:51.838Z,9.51
2022-11-24T03:13:18.457Z,9.53
2022-11-24T03:15:45.032Z,9.51
2022-11-24T03:18:11.677Z,9.51
2022-11-24T03:20:38.461Z,9.52
2022-11-24T03:23:05.172Z,9.51
2022-11-24T03:25:31.804Z,9.49
2022-11-24T03:27:58.490Z,9.51
2022-11-24T03:30:25.142Z,9.52
2022-11-24T03:32:53.643Z,9.52
2022-11-24T03:35:21.509Z,9.52
2022-11-24T03:37:48.300Z,9.54
2022-11-24T03:40:15.115Z,9.54
2022-11-24T03:42:41.789Z,9.51
2022-11-24T03:45:37.932Z,9.56
2022-11-24T03:47:55.406Z,9.54
2022-11-24T03:50:22.102Z,9.57
2022-11-24T03:52:48.685Z,9.57
2022-11-24T03:55:15.415Z,9.56
2022-11-24T03:57:42.000Z,9.63
2022-11-24T04:00:09.806Z,9.65
2022-11-24T04:02:36.461Z,9.65
2022-11-24T04:05:03.163Z,9.64
2022-11-24T04:07:29.781Z,9.63
2022-11-24T04:09:56.420Z,9.63
2022-11-24T04:12:41.834Z,9.65
2022-11-24T04:15:08.880Z,9.66
2022-11-24T04:17:35.517Z,9.70
2022-11-24T04:20:02.312Z,9.65
2022-11-24T04:22:31.726Z,9.67
2022-11-24T04:24:58.367Z,9.63
2022-11-24T04:27:24.949Z,9.65
2022-11-24T04:29:51.572Z,9.68
2022-11-24T04:32:18.283Z,9.65
2022-11-24T04:34:44.897Z,9.66
2022-11-24T04:37:11.967Z,9.66
2022-11-24T04:39:38.611Z,9.67
2022-11-24T04:42:06.170Z,9.69
2022-11-24T04:44:33.146Z,9.69
2022-11-24T04:47:01.083Z,9.69
2022-11-24T04:49:27.961Z,9.73
2022-11-24T04:51:54.562Z,9.75
2022-11-24T04:54:21.226Z,9.75
2022-11-24T04:56:51.866Z,9.72
2022-11-24T04:59:19.181Z,9.71
2022-11-24T05:01:47.107Z,9.75
2022-11-24T05:04:15.263Z,9.69
2022-11-24T05:06:42.416Z,9.71
2022-11-24T05:09:16.117Z,9.71
2022-11-24T05:11:43.256Z,9.71
2022-11-24T05:14:09.928Z,9.70
2022-11-24T05:16:37.926Z,9.70
2022-11-24T05:19:04.684Z,9.69
2022-11-24T05:21:31.279Z,9.72
2022-11-24T05:23:58.025Z,9.72
2022-11-24T05:26:24.759Z,9.72
2022-11-24T05:28:51.336Z,9.72
2022-11-24T05:31:18.109Z,9.70
2022-11-24T05:33:45.773Z,9.69
2022-11-24T05:36:32.356Z,9.73
2022-11-24T05:38:58.971Z,9.74
2022-11-24T05:41:25.704Z,9.73
2022-11-24T05:43:52.352Z,9.72
2022-11-24T05:46:18.996Z,9.76
2022-11-24T05:48:45.622Z,9.77
2022-11-24T05:51:12.197Z,9.80
2022-11-24T05:53:38.773Z,9.78
2022-11-24T05:56:05.867Z,9.79
2022-11-24T05:58:32.492Z,9.76
2022-11-24T06:00:59.058Z,9.79
2022-11-24T06:03:25.614Z,9.78
2022-11-24T06:05:52.230Z,9.76
2022-11-24T06:08:18.885Z,9.79
2022-11-24T06:10:45.458Z,9.79
2022-11-24T06:13:12.176Z,9.78
2022-11-24T06:15:40.491Z,9.78
2022-11-24T06:18:07.133Z,9.77
2022-11-24T06:20:33.740Z,9.77
2022-11-24T06:23:00.918Z,9.77
2022-11-24T06:25:28.299Z,9.75
2022-11-24T06:27:55.186Z,9.71
2022-11-24T06:30:21.914Z,9.70
2022-11-24T06:32:49.869Z,9.68
2022-11-24T06:35:17.271Z,9.68
2022-11-24T06:37:44.192Z,9.63
2022-11-24T06:40:11.124Z,9.63
2022-11-24T06:42:50.143Z,9.63
2022-11-24T06:45:17.103Z,9.58
2022-11-24T06:47:48.810Z,9.56
2022-11-24T06:50:15.826Z,9.55
2022-11-24T06:52:42.481Z,9.57
2022-11-24T06:55:09.325Z,9.55
2022-11-24T06:57:45.523Z,9.50
2022-11-24T07:00:18.749Z,9.52
2022-11-24T07:02:46.195Z,9.54
2022-11-24T07:05:13.008Z,9.53
2022-11-24T07:07:39.635Z,9.50
2022-11-24T07:10:12.447Z,9.47
2022-11-24T07:12:38.995Z,9.50
2022-11-24T07:15:06.244Z,9.52
2022-11-24T07:17:36.761Z,9.51
2022-11-24T07:20:04.588Z,9.53
2022-11-24T07:22:31.250Z,9.53
2022-11-24T07:24:57.859Z,9.51
2022-11-24T07:27:24.613Z,9.52
2022-11-24T07:29:51.222Z,9.53
2022-11-24T07:32:17.848Z,9.53
2022-11-24T07:34:44.487Z,9.51
2022-11-24T07:37:11.084Z,9.52
2022-11-24T07:39:37.675Z,9.56
2022-11-24T07:42:05.434Z,9.55
2022-11-24T07:44:32.272Z,9.53
2022-11-24T07:47:04.293Z,9.56
2022-11-24T07:49:39.928Z,9.52
2022-11-24T07:52:07.875Z,9.51
2022-11-24T07:54:34.751Z,9.57
2022-11-24T07:57:01.555Z,9.58
2022-11-24T07:59:31.106Z,9.58
2022-11-24T08:01:57.762Z,9.57
2022-11-24T08:04:24.427Z,9.53
2022-11-24T08:06:51.056Z,9.57
2022-11-24T08:09:17.679Z,9.59
2022-11-24T08:11:44.361Z,9.57
2022-11-24T08:14:11.106Z,9.54
2022-11-24T08:16:38.943Z,9.55
2022-11-24T08:19:05.729Z,9.59
2022-11-24T08:21:32.697Z,9.56
2022-11-24T08:23:59.296Z,9.54
2022-11-24T08:26:26.047Z,9.53
2022-11-24T08:28:59.672Z,9.54
2022-11-24T08:31:33.179Z,9.56
2022-11-24T08:34:01.367Z,9.54
2022-11-24T08:36:28.046Z,9.52
2022-11-24T08:38:56.432Z,9.60
2022-11-24T08:41:23.220Z,9.64
2022-11-24T08:43:50.057Z,9.63
2022-11-24T08:46:18.025Z,9.67
2022-11-24T08:48:48.484Z,9.69
2022-11-24T08:51:16.738Z,9.69
2022-11-24T08:53:48.548Z,9.74
2022-11-24T08:56:15.317Z,9.70
2022-11-24T08:58:42.524Z,9.71
2022-11-24T09:01:14.777Z,9.74
2022-11-24T09:03:48.562Z,9.71
2022-11-24T09:06:18.846Z,9.77
2022-11-24T09:08:45.484Z,9.72
2022-11-24T09:11:13.814Z,9.72
2022-11-24T09:13:41.007Z,9.80
2022-11-24T09:16:16.556Z,9.78
2022-11-24T09:18:43.595Z,9.85
2022-11-24T09:21:19.027Z,9.93
2022-11-24T09:23:48.571Z,9.99
2022-11-24T09:26:23.970Z,9.99
2022-11-24T09:28:54.562Z,10.02
2022-11-24T09:31:24.628Z,9.95
2022-11-24T09:33:52.426Z,9.93
2022-11-24T09:36:19.869Z,9.97
2022-11-24T09:38:46.827Z,9.97
2022-11-24T09:41:50.627Z,10.01
2022-11-24T09:44:59.287Z,9.96
2022-11-24T09:47:34.759Z,10.01
2022-11-24T09:50:05.784Z,10.11
2022-11-24T09:52:50.110Z,10.15
2022-11-24T09:55:32.286Z,10.24
2022-11-24T09:58:19.722Z,10.32
2022-11-24T10:00:48.928Z,10.26
2022-11-24T10:03:34.626Z,10.25
2022-11-24T10:06:04.706Z,10.28
2022-11-24T10:08:46.415Z,10.18
2022-11-24T10:11:15.154Z,10.31
2022-11-24T10:14:19.079Z,10.40
2022-11-24T10:17:02.133Z,10.45
2022-11-24T10:19:51.556Z,10.42
2022-11-24T10:22:24.295Z,10.42
2022-11-24T10:25:07.859Z,10.51
2022-11-24T10:27:38.211Z,10.64
2022-11-24T10:30:14.542Z,10.56
2022-11-24T10:32:46.494Z,10.56
2022-11-24T10:35:19.596Z,10.49
2022-11-24T10:38:11.242Z,10.51
2022-11-24T10:40:58.546Z,10.49
2022-11-24T10:43:27.699Z,10.56
2022-11-24T10:45:56.578Z,10.55
2022-11-24T10:48:27.855Z,11.49
2022-11-24T10:51:21.375Z,12.88
2022-11-24T10:53:48.571Z,13.38
2022-11-24T10:56:15.160Z,13.56
2022-11-24T10:58:41.776Z,13.51
2022-11-24T11:01:14.602Z,13.82
2022-11-24T11:03:58.891Z,14.33
2022-11-24T11:06:26.202Z,14.81
2022-11-24T11:09:08.060Z,14.51
2022-11-24T11:11:39.401Z,14.44
2022-11-24T11:14:07.947Z,14.16
2022-11-24T11:17:00.287Z,14.49
2022-11-24T11:19:52.390Z,13.43
2022-11-24T11:22:32.446Z,12.85
2022-11-24T11:25:11.396Z,13.46
2022-11-24T11:27:39.762Z,13.84
2022-11-24T11:36:10.905Z,15.54
2022-11-24T11:38:44.358Z,16.10
2022-11-24T11:41:20.122Z,16.42
2022-11-24T11:43:47.399Z,16.32
2022-11-24T11:46:18.049Z,16.11
2022-11-24T11:48:46.954Z,15.01
2022-11-24T11:51:26.810Z,15.41
2022-11-24T11:54:27.707Z,15.95
2022-11-24T11:57:19.062Z,15.49
2022-11-24T12:00:08.276Z,16.00
2022-11-24T12:02:54.258Z,16.37
2022-11-24T12:05:31.769Z,15.96
2022-11-24T12:08:21.566Z,16.45
2022-11-24T12:10:57.673Z,16.20
2022-11-24T12:13:43.667Z,15.59
2022-11-24T12:16:22.469Z,15.98
2022-11-24T12:19:12.580Z,16.30
2022-11-24T12:21:49.443Z,16.54
2022-11-24T12:24:28.190Z,16.82
2022-11-24T12:27:23.158Z,16.93
2022-11-24T12:30:02.341Z,16.24
2022-11-24T12:33:03.098Z,15.90
2022-11-24T12:35:43.767Z,16.15
2022-11-24T12:38:32.673Z,16.52
2022-11-24T12:44:01.758Z,15.00
2022-11-24T12:46:48.832Z,14.16
2022-11-24T12:49:24.687Z,14.18
2022-11-24T12:52:33.289Z,15.15
2022-11-24T12:55:00.567Z,16.04
2022-11-24T12:57:31.668Z,17.64
2022-11-24T13:00:07.680Z,18.33
2022-11-24T13:02:40.023Z,18.47
2022-11-24T13:05:30.997Z,17.49
2022-11-24T13:08:00.399Z,17.39
2022-11-24T13:10:55.687Z,17.40
2022-11-24T13:13:18.518Z,16.88
2022-11-24T13:16:34.150Z,16.28
2022-11-24T13:19:01.419Z,17.07
2022-11-24T13:21:28.579Z,16.71
2022-11-24T13:24:03.238Z,16.21
2022-11-24T13:26:41.720Z,15.24
2022-11-24T13:29:27.273Z,14.28
2022-11-24T13:32:21.108Z,13.75
2022-11-24T13:34:49.800Z,13.47
2022-11-24T13:37:31.504Z,13.27
2022-11-24T13:40:03.677Z,13.18
2022-11-24T13:42:42.513Z,13.12
2022-11-24T13:45:39.190Z,13.09
2022-11-24T13:48:21.956Z,13.10
2022-11-24T13:50:58.318Z,12.97
2022-11-24T13:53:27.892Z,12.83
2022-11-24T13:56:13.831Z,12.88
2022-11-24T13:58:57.736Z,13.01
2022-11-24T14:01:24.446Z,13.16
2022-11-24T14:06:48.120Z,12.95
2022-11-24T14:09:43.070Z,12.90
2022-11-24T14:12:36.065Z,12.81
2022-11-24T14:15:21.054Z,12.83
2022-11-24T14:17:47.727Z,12.86
2022-11-24T14:20:24.294Z,12.78
2022-11-24T14:22:51.277Z,12.73
2022-11-24T14:25:30.283Z,12.64
2022-11-24T14:27:57.284Z,12.60
2022-11-24T14:30:24.655Z,12.64
2022-11-24T14:32:59.176Z,12.53
2022-11-24T14:35:36.257Z,12.56
2022-11-24T14:38:05.432Z,12.50
2022-11-24T14:40:46.835Z,12.44
2022-11-24T14:43:34.748Z,12.39
2022-11-24T14:46:03.442Z,12.40
2022-11-24T14:48:50.230Z,12.38
2022-11-24T14:51:37.940Z,12.38
2022-11-24T14:54:07.369Z,12.40
2022-11-24T14:56:38.101Z,12.39
2022-11-24T14:59:20.918Z,12.40
2022-11-24T15:01:52.625Z,12.39
2022-11-24T15:05:03.555Z,12.33
2022-11-24T15:07:30.497Z,12.28
2022-11-24T15:09:58.892Z,12.23
2022-11-24T15:12:34.335Z,12.15
2022-11-24T15:15:22.560Z,12.14
2022-11-24T15:18:29.215Z,12.15
2022-11-24T15:20:56.073Z,12.06
2022-11-24T15:23:25.704Z,12.03
2022-11-24T15:25:54.026Z,11.95
2022-11-24T15:28:25.791Z,11.96
2022-11-24T15:30:57.138Z,11.87
2022-11-24T15:33:23.871Z,11.86
2022-11-24T15:35:50.666Z,11.81
2022-11-24T15:38:17.640Z,11.82
2022-11-24T15:40:46.688Z,11.75
2022-11-24T15:43:41.038Z,11.68
2022-11-24T15:46:10.737Z,11.68
2022-11-24T15:48:37.424Z,11.72
2022-11-24T15:51:07.337Z,11.66
2022-11-24T15:53:39.739Z,11.58
2022-11-24T15:56:10.867Z,11.57
2022-11-24T15:58:38.431Z,11.53
2022-11-24T16:01:05.239Z,11.48
2022-11-24T16:03:47.108Z,11.43
2022-11-24T16:06:23.700Z,11.44
2022-11-24T16:08:52.666Z,11.42
2022-11-24T16:11:19.521Z,11.40
2022-11-24T16:13:51.834Z,11.33
2022-11-24T16:16:19.783Z,11.31
2022-11-24T16:18:46.522Z,11.24
2022-11-24T16:21:13.251Z,11.20
2022-11-24T16:23:40.525Z,11.14
